sensor_id;sensor_type;location;lat;lon;timestamp;P1;durP1;ratioP1;P2;durP2;ratioP2
38591;SDS011;24356;48.460;11.450;2023-02-28T00:00:48;6.57;;;3.22;;
38591;SDS011;24356;48.460;11.450;2023-02-28T00:03:14;5.50;;;3.13;;
38591;SDS011;24356;48.460;11.450;2023-02-28T00:05:39;5.07;;;3.10;;
38591;SDS011;24356;48.460;11.450;2023-02-28T00:08:06;6.03;;;3.13;;
38591;SDS011;24356;48.460;11.450;2023-02-28T00:10:32;6.70;;;3.42;;
38591;SDS011;24356;48.460;11.450;2023-02-28T00:13:03;6.25;;;3.17;;
38591;SDS011;24356;48.460;11.450;2023-02-28T00:15:30;5.68;;;3.30;;
38591;SDS011;24356;48.460;11.450;2023-02-28T00:17:57;6.82;;;3.42;;
38591;SDS011;24356;48.460;11.450;2023-02-28T00:20:24;6.10;;;2.85;;
38591;SDS011;24356;48.460;11.450;2023-02-28T00:22:51;5.50;;;3.03;;
38591;SDS011;24356;48.460;11.450;2023-02-28T00:27:46;5.72;;;3.28;;
38591;SDS011;24356;48.460;11.450;2023-02-28T00:30:13;6.53;;;3.58;;
38591;SDS011;24356;48.460;11.450;2023-02-28T00:32:40;6.32;;;3.25;;
38591;SDS011;24356;48.460;11.450;2023-02-28T00:35:06;6.85;;;3.28;;
38591;SDS011;24356;48.460;11.450;2023-02-28T00:37:33;8.10;;;3.40;;
38591;SDS011;24356;48.460;11.450;2023-02-28T00:39:59;5.88;;;3.25;;
38591;SDS011;24356;48.460;11.450;2023-02-28T00:42:25;6.18;;;3.35;;
38591;SDS011;24356;48.460;11.450;2023-02-28T00:44:51;7.35;;;3.35;;
38591;SDS011;24356;48.460;11.450;2023-02-28T00:47:16;6.43;;;3.20;;
38591;SDS011;24356;48.460;11.450;2023-02-28T00:49:42;7.32;;;3.30;;
38591;SDS011;24356;48.460;11.450;2023-02-28T00:52:08;5.65;;;3.22;;
38591;SDS011;24356;48.460;11.450;2023-02-28T00:54:34;6.68;;;3.35;;
38591;SDS011;24356;48.460;11.450;2023-02-28T00:56:59;7.93;;;3.10;;
38591;SDS011;24356;48.460;11.450;2023-02-28T00:59:25;6.20;;;3.13;;
38591;SDS011;24356;48.460;11.450;2023-02-28T01:01:51;10.05;;;3.60;;
38591;SDS011;24356;48.460;11.450;2023-02-28T01:04:16;4.57;;;2.90;;
38591;SDS011;24356;48.460;11.450;2023-02-28T01:06:42;6.68;;;3.08;;
38591;SDS011;24356;48.460;11.450;2023-02-28T01:09:08;7.50;;;3.67;;
38591;SDS011;24356;48.460;11.450;2023-02-28T01:11:33;7.47;;;3.90;;
38591;SDS011;24356;48.460;11.450;2023-02-28T01:13:59;5.22;;;2.92;;
38591;SDS011;24356;48.460;11.450;2023-02-28T01:16:25;5.93;;;3.22;;
38591;SDS011;24356;48.460;11.450;2023-02-28T01:18:51;10.60;;;3.78;;
38591;SDS011;24356;48.460;11.450;2023-02-28T01:21:18;8.40;;;3.67;;
38591;SDS011;24356;48.460;11.450;2023-02-28T01:23:45;7.80;;;3.65;;
38591;SDS011;24356;48.460;11.450;2023-02-28T01:26:12;6.18;;;3.45;;
38591;SDS011;24356;48.460;11.450;2023-02-28T01:28:40;5.78;;;3.17;;
38591;SDS011;24356;48.460;11.450;2023-02-28T01:31:05;6.18;;;3.65;;
38591;SDS011;24356;48.460;11.450;2023-02-28T01:33:31;6.63;;;3.78;;
38591;SDS011;24356;48.460;11.450;2023-02-28T01:36:05;6.32;;;3.50;;
38591;SDS011;24356;48.460;11.450;2023-02-28T01:38:32;8.13;;;3.50;;
38591;SDS011;24356;48.460;11.450;2023-02-28T01:40:58;6.75;;;3.72;;
38591;SDS011;24356;48.460;11.450;2023-02-28T01:46:08;6.40;;;3.35;;
38591;SDS011;24356;48.460;11.450;2023-02-28T01:48:38;6.78;;;3.65;;
38591;SDS011;24356;48.460;11.450;2023-02-28T01:51:12;7.47;;;3.55;;
38591;SDS011;24356;48.460;11.450;2023-02-28T01:53:49;5.80;;;3.38;;
38591;SDS011;24356;48.460;11.450;2023-02-28T01:56:19;9.75;;;4.30;;
38591;SDS011;24356;48.460;11.450;2023-02-28T01:58:48;7.65;;;3.80;;
38591;SDS011;24356;48.460;11.450;2023-02-28T02:01:15;6.32;;;3.65;;
38591;SDS011;24356;48.460;11.450;2023-02-28T02:03:53;9.77;;;3.95;;
38591;SDS011;24356;48.460;11.450;2023-02-28T02:06:22;8.85;;;3.70;;
38591;SDS011;24356;48.460;11.450;2023-02-28T02:08:49;8.10;;;3.97;;
38591;SDS011;24356;48.460;11.450;2023-02-28T02:11:17;6.72;;;3.42;;
38591;SDS011;24356;48.460;11.450;2023-02-28T02:13:52;8.13;;;3.88;;
38591;SDS011;24356;48.460;11.450;2023-02-28T02:16:46;8.50;;;3.60;;
38591;SDS011;24356;48.460;11.450;2023-02-28T02:19:32;9.40;;;4.10;;
38591;SDS011;24356;48.460;11.450;2023-02-28T02:22:43;9.02;;;4.20;;
38591;SDS011;24356;48.460;11.450;2023-02-28T02:25:21;8.20;;;4.00;;
38591;SDS011;24356;48.460;11.450;2023-02-28T02:30:35;7.30;;;3.83;;
38591;SDS011;24356;48.460;11.450;2023-02-28T02:36:12;9.80;;;4.35;;
38591;SDS011;24356;48.460;11.450;2023-02-28T02:44:05;10.65;;;4.57;;
38591;SDS011;24356;48.460;11.450;2023-02-28T02:46:39;8.30;;;4.60;;
38591;SDS011;24356;48.460;11.450;2023-02-28T02:49:09;9.40;;;4.10;;
38591;SDS011;24356;48.460;11.450;2023-02-28T02:51:40;8.75;;;4.47;;
38591;SDS011;24356;48.460;11.450;2023-02-28T02:54:14;9.20;;;4.55;;
38591;SDS011;24356;48.460;11.450;2023-02-28T02:56:44;11.80;;;4.47;;
38591;SDS011;24356;48.460;11.450;2023-02-28T02:59:13;9.18;;;4.78;;
38591;SDS011;24356;48.460;11.450;2023-02-28T03:01:46;8.15;;;3.92;;
38591;SDS011;24356;48.460;11.450;2023-02-28T03:04:18;10.05;;;4.60;;
38591;SDS011;24356;48.460;11.450;2023-02-28T03:06:46;9.63;;;4.53;;
38591;SDS011;24356;48.460;11.450;2023-02-28T03:09:12;8.48;;;4.50;;
38591;SDS011;24356;48.460;11.450;2023-02-28T03:11:38;10.68;;;4.78;;
38591;SDS011;24356;48.460;11.450;2023-02-28T03:14:25;8.32;;;4.40;;
38591;SDS011;24356;48.460;11.450;2023-02-28T03:22:14;8.95;;;4.47;;
38591;SDS011;24356;48.460;11.450;2023-02-28T03:25:09;7.63;;;4.28;;
38591;SDS011;24356;48.460;11.450;2023-02-28T03:27:44;10.17;;;5.20;;
38591;SDS011;24356;48.460;11.450;2023-02-28T03:30:25;9.65;;;4.95;;
38591;SDS011;24356;48.460;11.450;2023-02-28T03:36:12;7.40;;;4.55;;
38591;SDS011;24356;48.460;11.450;2023-02-28T03:38:34;9.48;;;4.80;;
38591;SDS011;24356;48.460;11.450;2023-02-28T03:41:27;9.77;;;5.18;;
38591;SDS011;24356;48.460;11.450;2023-02-28T03:43:55;9.10;;;4.72;;
38591;SDS011;24356;48.460;11.450;2023-02-28T03:46:25;10.38;;;4.78;;
38591;SDS011;24356;48.460;11.450;2023-02-28T03:48:55;9.73;;;4.85;;
38591;SDS011;24356;48.460;11.450;2023-02-28T03:51:27;10.73;;;5.30;;
38591;SDS011;24356;48.460;11.450;2023-02-28T03:53:56;10.48;;;5.60;;
38591;SDS011;24356;48.460;11.450;2023-02-28T03:56:27;9.45;;;4.93;;
38591;SDS011;24356;48.460;11.450;2023-02-28T03:59:04;10.80;;;5.03;;
38591;SDS011;24356;48.460;11.450;2023-02-28T04:01:38;8.30;;;4.95;;
38591;SDS011;24356;48.460;11.450;2023-02-28T04:04:07;9.10;;;5.03;;
38591;SDS011;24356;48.460;11.450;2023-02-28T04:06:35;10.23;;;5.22;;
38591;SDS011;24356;48.460;11.450;2023-02-28T04:09:02;10.75;;;5.53;;
38591;SDS011;24356;48.460;11.450;2023-02-28T04:11:33;8.60;;;4.72;;
38591;SDS011;24356;48.460;11.450;2023-02-28T04:14:01;10.65;;;5.03;;
38591;SDS011;24356;48.460;11.450;2023-02-28T04:16:31;9.90;;;5.32;;
38591;SDS011;24356;48.460;11.450;2023-02-28T04:18:57;14.55;;;5.32;;
38591;SDS011;24356;48.460;11.450;2023-02-28T04:21:34;12.07;;;5.78;;
38591;SDS011;24356;48.460;11.450;2023-02-28T04:24:01;11.27;;;5.35;;
38591;SDS011;24356;48.460;11.450;2023-02-28T04:26:28;11.43;;;5.25;;
38591;SDS011;24356;48.460;11.450;2023-02-28T04:28:58;11.00;;;5.45;;
38591;SDS011;24356;48.460;11.450;2023-02-28T04:31:24;10.73;;;5.68;;
38591;SDS011;24356;48.460;11.450;2023-02-28T04:33:50;12.45;;;5.20;;
38591;SDS011;24356;48.460;11.450;2023-02-28T04:36:15;10.32;;;5.30;;
38591;SDS011;24356;48.460;11.450;2023-02-28T04:38:43;13.77;;;5.70;;
38591;SDS011;24356;48.460;11.450;2023-02-28T04:41:09;12.95;;;5.53;;
38591;SDS011;24356;48.460;11.450;2023-02-28T04:43:35;11.57;;;5.68;;
38591;SDS011;24356;48.460;11.450;2023-02-28T04:46:01;11.90;;;5.45;;
38591;SDS011;24356;48.460;11.450;2023-02-28T04:48:28;12.00;;;5.60;;
38591;SDS011;24356;48.460;11.450;2023-02-28T04:50:59;10.90;;;5.72;;
38591;SDS011;24356;48.460;11.450;2023-02-28T04:53:29;9.68;;;5.22;;
38591;SDS011;24356;48.460;11.450;2023-02-28T04:55:55;11.45;;;5.90;;
38591;SDS011;24356;48.460;11.450;2023-02-28T04:58:21;12.18;;;5.60;;
38591;SDS011;24356;48.460;11.450;2023-02-28T05:00:50;12.32;;;6.00;;
38591;SDS011;24356;48.460;11.450;2023-02-28T05:03:19;10.18;;;5.50;;
38591;SDS011;24356;48.460;11.450;2023-02-28T05:05:47;11.13;;;5.90;;
38591;SDS011;24356;48.460;11.450;2023-02-28T05:08:12;14.85;;;6.60;;
38591;SDS011;24356;48.460;11.450;2023-02-28T05:10:38;9.63;;;5.75;;
38591;SDS011;24356;48.460;11.450;2023-02-28T05:13:03;9.93;;;5.68;;
38591;SDS011;24356;48.460;11.450;2023-02-28T05:15:29;10.32;;;5.65;;
38591;SDS011;24356;48.460;11.450;2023-02-28T05:17:55;11.35;;;5.55;;
38591;SDS011;24356;48.460;11.450;2023-02-28T05:20:20;11.10;;;5.43;;
38591;SDS011;24356;48.460;11.450;2023-02-28T05:22:46;11.02;;;6.10;;
38591;SDS011;24356;48.460;11.450;2023-02-28T05:25:12;12.70;;;6.15;;
38591;SDS011;24356;48.460;11.450;2023-02-28T05:27:41;11.48;;;5.55;;
38591;SDS011;24356;48.460;11.450;2023-02-28T05:30:07;10.88;;;6.25;;
38591;SDS011;24356;48.460;11.450;2023-02-28T05:32:35;10.75;;;5.97;;
38591;SDS011;24356;48.460;11.450;2023-02-28T05:35:08;13.73;;;6.20;;
38591;SDS011;24356;48.460;11.450;2023-02-28T05:37:34;10.48;;;5.63;;
38591;SDS011;24356;48.460;11.450;2023-02-28T05:40:00;11.73;;;6.18;;
38591;SDS011;24356;48.460;11.450;2023-02-28T05:42:26;11.55;;;5.88;;
38591;SDS011;24356;48.460;11.450;2023-02-28T05:44:51;10.70;;;5.40;;
38591;SDS011;24356;48.460;11.450;2023-02-28T05:47:17;12.55;;;6.13;;
38591;SDS011;24356;48.460;11.450;2023-02-28T05:49:42;10.90;;;5.90;;
38591;SDS011;24356;48.460;11.450;2023-02-28T05:52:08;10.38;;;5.53;;
38591;SDS011;24356;48.460;11.450;2023-02-28T05:54:34;12.13;;;5.97;;
38591;SDS011;24356;48.460;11.450;2023-02-28T05:56:59;11.95;;;5.85;;
38591;SDS011;24356;48.460;11.450;2023-02-28T05:59:25;12.38;;;5.90;;
38591;SDS011;24356;48.460;11.450;2023-02-28T06:01:50;10.50;;;5.75;;
38591;SDS011;24356;48.460;11.450;2023-02-28T06:04:18;14.70;;;6.07;;
38591;SDS011;24356;48.460;11.450;2023-02-28T06:06:46;13.45;;;6.15;;
38591;SDS011;24356;48.460;11.450;2023-02-28T06:09:12;10.50;;;5.82;;
38591;SDS011;24356;48.460;11.450;2023-02-28T06:11:38;11.27;;;5.82;;
38591;SDS011;24356;48.460;11.450;2023-02-28T06:14:04;11.63;;;6.00;;
38591;SDS011;24356;48.460;11.450;2023-02-28T06:16:31;13.10;;;6.10;;
38591;SDS011;24356;48.460;11.450;2023-02-28T06:19:00;15.63;;;6.30;;
38591;SDS011;24356;48.460;11.450;2023-02-28T06:21:28;12.25;;;6.32;;
38591;SDS011;24356;48.460;11.450;2023-02-28T06:23:54;13.10;;;6.20;;
38591;SDS011;24356;48.460;11.450;2023-02-28T06:26:21;12.90;;;6.70;;
38591;SDS011;24356;48.460;11.450;2023-02-28T06:28:46;14.00;;;6.60;;
38591;SDS011;24356;48.460;11.450;2023-02-28T06:31:13;14.75;;;6.63;;
38591;SDS011;24356;48.460;11.450;2023-02-28T06:33:40;11.88;;;6.75;;
38591;SDS011;24356;48.460;11.450;2023-02-28T06:36:07;15.73;;;6.85;;
38591;SDS011;24356;48.460;11.450;2023-02-28T06:38:34;13.90;;;6.68;;
38591;SDS011;24356;48.460;11.450;2023-02-28T06:41:01;12.98;;;6.47;;
38591;SDS011;24356;48.460;11.450;2023-02-28T06:43:28;14.30;;;6.97;;
38591;SDS011;24356;48.460;11.450;2023-02-28T06:45:55;12.43;;;6.47;;
38591;SDS011;24356;48.460;11.450;2023-02-28T06:48:22;12.52;;;6.50;;
38591;SDS011;24356;48.460;11.450;2023-02-28T06:50:48;12.07;;;6.47;;
38591;SDS011;24356;48.460;11.450;2023-02-28T06:53:14;15.00;;;6.90;;
38591;SDS011;24356;48.460;11.450;2023-02-28T06:55:40;14.32;;;6.88;;
38591;SDS011;24356;48.460;11.450;2023-02-28T06:58:06;13.35;;;6.35;;
38591;SDS011;24356;48.460;11.450;2023-02-28T07:00:43;17.27;;;7.13;;
38591;SDS011;24356;48.460;11.450;2023-02-28T07:03:10;14.15;;;6.28;;
38591;SDS011;24356;48.460;11.450;2023-02-28T07:05:37;13.98;;;6.43;;
38591;SDS011;24356;48.460;11.450;2023-02-28T07:08:04;12.15;;;6.18;;
38591;SDS011;24356;48.460;11.450;2023-02-28T07:10:31;16.70;;;6.78;;
38591;SDS011;24356;48.460;11.450;2023-02-28T07:12:57;13.82;;;6.88;;
38591;SDS011;24356;48.460;11.450;2023-02-28T07:15:24;14.73;;;6.85;;
38591;SDS011;24356;48.460;11.450;2023-02-28T07:17:49;14.27;;;6.68;;
38591;SDS011;24356;48.460;11.450;2023-02-28T07:20:15;14.30;;;6.75;;
38591;SDS011;24356;48.460;11.450;2023-02-28T07:22:41;13.30;;;6.93;;
38591;SDS011;24356;48.460;11.450;2023-02-28T07:25:07;10.95;;;6.30;;
38591;SDS011;24356;48.460;11.450;2023-02-28T07:27:33;13.77;;;6.78;;
38591;SDS011;24356;48.460;11.450;2023-02-28T07:29:59;13.05;;;6.20;;
38591;SDS011;24356;48.460;11.450;2023-02-28T07:32:26;14.70;;;7.50;;
38591;SDS011;24356;48.460;11.450;2023-02-28T07:34:53;12.98;;;7.00;;
38591;SDS011;24356;48.460;11.450;2023-02-28T07:37:18;13.80;;;6.72;;
38591;SDS011;24356;48.460;11.450;2023-02-28T07:39:44;13.73;;;6.68;;
38591;SDS011;24356;48.460;11.450;2023-02-28T07:42:10;12.27;;;6.75;;
38591;SDS011;24356;48.460;11.450;2023-02-28T07:44:37;13.23;;;6.80;;
38591;SDS011;24356;48.460;11.450;2023-02-28T07:47:06;12.00;;;6.60;;
38591;SDS011;24356;48.460;11.450;2023-02-28T07:49:35;14.00;;;6.95;;
38591;SDS011;24356;48.460;11.450;2023-02-28T07:52:02;12.60;;;6.97;;
38591;SDS011;24356;48.460;11.450;2023-02-28T07:54:28;12.85;;;6.88;;
38591;SDS011;24356;48.460;11.450;2023-02-28T07:56:54;11.65;;;6.40;;
38591;SDS011;24356;48.460;11.450;2023-02-28T07:59:20;14.13;;;7.43;;
38591;SDS011;24356;48.460;11.450;2023-02-28T08:01:45;13.88;;;7.05;;
38591;SDS011;24356;48.460;11.450;2023-02-28T08:04:11;15.60;;;7.45;;
38591;SDS011;24356;48.460;11.450;2023-02-28T08:06:36;13.00;;;7.10;;
38591;SDS011;24356;48.460;11.450;2023-02-28T08:09:02;11.82;;;6.90;;
38591;SDS011;24356;48.460;11.450;2023-02-28T08:11:28;13.65;;;7.35;;
38591;SDS011;24356;48.460;11.450;2023-02-28T08:13:54;14.98;;;7.65;;
38591;SDS011;24356;48.460;11.450;2023-02-28T08:16:19;13.70;;;7.53;;
38591;SDS011;24356;48.460;11.450;2023-02-28T08:18:47;13.70;;;6.93;;
38591;SDS011;24356;48.460;11.450;2023-02-28T08:21:14;14.25;;;7.50;;
38591;SDS011;24356;48.460;11.450;2023-02-28T08:23:40;14.10;;;7.57;;
38591;SDS011;24356;48.460;11.450;2023-02-28T08:26:06;14.43;;;7.55;;
38591;SDS011;24356;48.460;11.450;2023-02-28T08:28:32;13.82;;;7.63;;
38591;SDS011;24356;48.460;11.450;2023-02-28T08:30:58;12.82;;;6.95;;
38591;SDS011;24356;48.460;11.450;2023-02-28T08:33:24;12.68;;;6.93;;
38591;SDS011;24356;48.460;11.450;2023-02-28T08:35:52;18.15;;;7.05;;
38591;SDS011;24356;48.460;11.450;2023-02-28T08:38:19;12.15;;;6.70;;
38591;SDS011;24356;48.460;11.450;2023-02-28T08:40:44;13.27;;;6.57;;
38591;SDS011;24356;48.460;11.450;2023-02-28T08:43:10;14.10;;;6.45;;
38591;SDS011;24356;48.460;11.450;2023-02-28T08:45:35;12.75;;;6.82;;
38591;SDS011;24356;48.460;11.450;2023-02-28T08:48:01;11.88;;;6.75;;
38591;SDS011;24356;48.460;11.450;2023-02-28T08:50:27;12.10;;;6.40;;
38591;SDS011;24356;48.460;11.450;2023-02-28T08:52:52;13.15;;;6.93;;
38591;SDS011;24356;48.460;11.450;2023-02-28T08:55:18;12.93;;;6.93;;
38591;SDS011;24356;48.460;11.450;2023-02-28T08:57:44;13.48;;;6.70;;
38591;SDS011;24356;48.460;11.450;2023-02-28T09:00:10;11.93;;;6.82;;
38591;SDS011;24356;48.460;11.450;2023-02-28T09:02:38;14.00;;;7.00;;
38591;SDS011;24356;48.460;11.450;2023-02-28T09:05:05;10.85;;;6.32;;
38591;SDS011;24356;48.460;11.450;2023-02-28T09:07:31;12.75;;;7.25;;
38591;SDS011;24356;48.460;11.450;2023-02-28T09:09:57;12.77;;;6.63;;
38591;SDS011;24356;48.460;11.450;2023-02-28T09:12:25;10.82;;;6.40;;
38591;SDS011;24356;48.460;11.450;2023-02-28T09:14:52;13.45;;;7.47;;
38591;SDS011;24356;48.460;11.450;2023-02-28T09:17:18;11.30;;;6.93;;
38591;SDS011;24356;48.460;11.450;2023-02-28T09:19:45;12.05;;;6.85;;
38591;SDS011;24356;48.460;11.450;2023-02-28T09:22:13;13.07;;;6.90;;
38591;SDS011;24356;48.460;11.450;2023-02-28T09:24:38;11.60;;;6.68;;
38591;SDS011;24356;48.460;11.450;2023-02-28T09:27:04;12.35;;;6.38;;
38591;SDS011;24356;48.460;11.450;2023-02-28T09:29:31;13.82;;;7.20;;
38591;SDS011;24356;48.460;11.450;2023-02-28T09:31:57;12.95;;;6.57;;
38591;SDS011;24356;48.460;11.450;2023-02-28T09:34:24;10.77;;;6.47;;
38591;SDS011;24356;48.460;11.450;2023-02-28T09:36:50;13.77;;;6.90;;
38591;SDS011;24356;48.460;11.450;2023-02-28T09:39:19;11.45;;;6.63;;
38591;SDS011;24356;48.460;11.450;2023-02-28T09:41:47;13.88;;;6.70;;
38591;SDS011;24356;48.460;11.450;2023-02-28T09:44:18;10.45;;;6.65;;
38591;SDS011;24356;48.460;11.450;2023-02-28T09:47:17;14.73;;;6.70;;
38591;SDS011;24356;48.460;11.450;2023-02-28T09:50:00;10.02;;;6.35;;
38591;SDS011;24356;48.460;11.450;2023-02-28T09:52:36;12.38;;;6.65;;
38591;SDS011;24356;48.460;11.450;2023-02-28T09:57:40;11.45;;;6.80;;
38591;SDS011;24356;48.460;11.450;2023-02-28T10:00:15;12.38;;;6.75;;
38591;SDS011;24356;48.460;11.450;2023-02-28T10:02:48;10.05;;;6.05;;
38591;SDS011;24356;48.460;11.450;2023-02-28T10:05:19;10.13;;;6.38;;
38591;SDS011;24356;48.460;11.450;2023-02-28T10:10:33;12.25;;;6.47;;
38591;SDS011;24356;48.460;11.450;2023-02-28T10:13:10;12.88;;;7.13;;
38591;SDS011;24356;48.460;11.450;2023-02-28T10:15:42;12.38;;;7.15;;
38591;SDS011;24356;48.460;11.450;2023-02-28T10:18:12;11.18;;;7.03;;
38591;SDS011;24356;48.460;11.450;2023-02-28T10:20:41;11.95;;;7.28;;
38591;SDS011;24356;48.460;11.450;2023-02-28T10:23:17;12.18;;;7.03;;
38591;SDS011;24356;48.460;11.450;2023-02-28T10:26:00;10.98;;;6.75;;
38591;SDS011;24356;48.460;11.450;2023-02-28T10:28:38;10.32;;;7.07;;
38591;SDS011;24356;48.460;11.450;2023-02-28T10:31:04;11.93;;;7.20;;
38591;SDS011;24356;48.460;11.450;2023-02-28T10:33:31;12.90;;;6.93;;
38591;SDS011;24356;48.460;11.450;2023-02-28T10:35:59;10.77;;;6.50;;
38591;SDS011;24356;48.460;11.450;2023-02-28T10:38:27;11.23;;;7.07;;
38591;SDS011;24356;48.460;11.450;2023-02-28T10:41:04;14.85;;;7.43;;
38591;SDS011;24356;48.460;11.450;2023-02-28T10:43:30;10.57;;;7.18;;
38591;SDS011;24356;48.460;11.450;2023-02-28T10:48:36;12.20;;;6.45;;
38591;SDS011;24356;48.460;11.450;2023-02-28T10:51:04;11.00;;;6.40;;
38591;SDS011;24356;48.460;11.450;2023-02-28T10:56:12;12.52;;;7.30;;
38591;SDS011;24356;48.460;11.450;2023-02-28T11:01:39;11.40;;;7.10;;
38591;SDS011;24356;48.460;11.450;2023-02-28T11:04:31;13.30;;;7.05;;
38591;SDS011;24356;48.460;11.450;2023-02-28T11:07:18;11.90;;;7.13;;
38591;SDS011;24356;48.460;11.450;2023-02-28T11:09:46;12.82;;;7.20;;
38591;SDS011;24356;48.460;11.450;2023-02-28T11:12:19;13.32;;;7.13;;
38591;SDS011;24356;48.460;11.450;2023-02-28T11:14:53;11.77;;;7.20;;
38591;SDS011;24356;48.460;11.450;2023-02-28T11:17:23;12.27;;;7.35;;
38591;SDS011;24356;48.460;11.450;2023-02-28T11:19:52;10.80;;;7.25;;
38591;SDS011;24356;48.460;11.450;2023-02-28T11:22:27;11.82;;;7.28;;
38591;SDS011;24356;48.460;11.450;2023-02-28T11:24:56;10.73;;;6.90;;
38591;SDS011;24356;48.460;11.450;2023-02-28T11:30:04;11.07;;;6.97;;
38591;SDS011;24356;48.460;11.450;2023-02-28T11:32:49;12.93;;;7.22;;
38591;SDS011;24356;48.460;11.450;2023-02-28T11:35:17;12.73;;;6.97;;
38591;SDS011;24356;48.460;11.450;2023-02-28T11:37:49;11.40;;;7.22;;
38591;SDS011;24356;48.460;11.450;2023-02-28T11:40:16;12.65;;;7.32;;
38591;SDS011;24356;48.460;11.450;2023-02-28T11:43:04;12.23;;;7.00;;
38591;SDS011;24356;48.460;11.450;2023-02-28T11:45:57;13.90;;;7.85;;
38591;SDS011;24356;48.460;11.450;2023-02-28T11:51:45;11.13;;;6.90;;
38591;SDS011;24356;48.460;11.450;2023-02-28T11:54:23;12.27;;;7.00;;
38591;SDS011;24356;48.460;11.450;2023-02-28T12:00:00;12.10;;;7.30;;
38591;SDS011;24356;48.460;11.450;2023-02-28T12:05:34;11.90;;;7.75;;
38591;SDS011;24356;48.460;11.450;2023-02-28T12:08:23;13.13;;;7.13;;
38591;SDS011;24356;48.460;11.450;2023-02-28T12:10:54;13.38;;;7.25;;
38591;SDS011;24356;48.460;11.450;2023-02-28T12:16:43;11.02;;;6.95;;
38591;SDS011;24356;48.460;11.450;2023-02-28T12:22:00;12.73;;;7.57;;
38591;SDS011;24356;48.460;11.450;2023-02-28T12:29:51;12.15;;;7.65;;
38591;SDS011;24356;48.460;11.450;2023-02-28T12:32:26;13.13;;;7.22;;
38591;SDS011;24356;48.460;11.450;2023-02-28T12:37:42;11.15;;;7.45;;
38591;SDS011;24356;48.460;11.450;2023-02-28T12:40:16;13.20;;;6.70;;
38591;SDS011;24356;48.460;11.450;2023-02-28T12:42:49;11.85;;;7.43;;
38591;SDS011;24356;48.460;11.450;2023-02-28T12:45:43;12.55;;;7.40;;
38591;SDS011;24356;48.460;11.450;2023-02-28T12:48:31;10.27;;;6.70;;
38591;SDS011;24356;48.460;11.450;2023-02-28T12:50:59;13.32;;;7.53;;
38591;SDS011;24356;48.460;11.450;2023-02-28T12:57:16;12.93;;;7.28;;
38591;SDS011;24356;48.460;11.450;2023-02-28T13:10:49;10.60;;;7.13;;
38591;SDS011;24356;48.460;11.450;2023-02-28T13:13:23;13.60;;;7.05;;
38591;SDS011;24356;48.460;11.450;2023-02-28T13:16:08;11.18;;;6.47;;
38591;SDS011;24356;48.460;11.450;2023-02-28T13:21:06;10.15;;;6.82;;
38591;SDS011;24356;48.460;11.450;2023-02-28T13:24:36;12.02;;;7.50;;
38591;SDS011;24356;48.460;11.450;2023-02-28T13:34:31;10.95;;;7.00;;
38591;SDS011;24356;48.460;11.450;2023-02-28T13:39:56;11.63;;;6.53;;
38591;SDS011;24356;48.460;11.450;2023-02-28T13:42:35;11.25;;;6.85;;
38591;SDS011;24356;48.460;11.450;2023-02-28T13:50:47;12.20;;;6.90;;
38591;SDS011;24356;48.460;11.450;2023-02-28T14:06:29;9.90;;;6.50;;
38591;SDS011;24356;48.460;11.450;2023-02-28T14:11:33;11.45;;;6.38;;
38591;SDS011;24356;48.460;11.450;2023-02-28T14:14:01;10.85;;;6.65;;
38591;SDS011;24356;48.460;11.450;2023-02-28T14:16:39;11.40;;;6.72;;
38591;SDS011;24356;48.460;11.450;2023-02-28T14:19:14;9.98;;;6.60;;
38591;SDS011;24356;48.460;11.450;2023-02-28T14:21:52;10.07;;;6.30;;
38591;SDS011;24356;48.460;11.450;2023-02-28T14:38:27;12.18;;;6.88;;
38591;SDS011;24356;48.460;11.450;2023-02-28T14:40:56;10.00;;;6.55;;
38591;SDS011;24356;48.460;11.450;2023-02-28T14:43:26;10.13;;;6.78;;
38591;SDS011;24356;48.460;11.450;2023-02-28T14:45:59;9.90;;;6.60;;
38591;SDS011;24356;48.460;11.450;2023-02-28T14:48:27;10.43;;;6.68;;
38591;SDS011;24356;48.460;11.450;2023-02-28T14:50:57;12.38;;;7.28;;
38591;SDS011;24356;48.460;11.450;2023-02-28T14:53:28;12.23;;;7.13;;
38591;SDS011;24356;48.460;11.450;2023-02-28T14:55:55;10.88;;;7.40;;
38591;SDS011;24356;48.460;11.450;2023-02-28T14:58:26;9.63;;;6.85;;
38591;SDS011;24356;48.460;11.450;2023-02-28T15:00:55;14.10;;;7.22;;
38591;SDS011;24356;48.460;11.450;2023-02-28T15:03:24;13.30;;;7.60;;
38591;SDS011;24356;48.460;11.450;2023-02-28T15:06:04;15.07;;;7.93;;
38591;SDS011;24356;48.460;11.450;2023-02-28T15:08:42;16.13;;;8.57;;
38591;SDS011;24356;48.460;11.450;2023-02-28T15:11:11;11.57;;;7.70;;
38591;SDS011;24356;48.460;11.450;2023-02-28T15:13:53;13.52;;;7.05;;
38591;SDS011;24356;48.460;11.450;2023-02-28T15:16:31;13.67;;;7.27;;
38591;SDS011;24356;48.460;11.450;2023-02-28T15:21:33;13.48;;;7.75;;
38591;SDS011;24356;48.460;11.450;2023-02-28T15:24:04;11.18;;;7.47;;
38591;SDS011;24356;48.460;11.450;2023-02-28T15:26:39;12.10;;;7.85;;
38591;SDS011;24356;48.460;11.450;2023-02-28T15:29:14;12.77;;;8.30;;
38591;SDS011;24356;48.460;11.450;2023-02-28T15:31:43;13.02;;;7.60;;
38591;SDS011;24356;48.460;11.450;2023-02-28T15:34:27;12.30;;;7.50;;
38591;SDS011;24356;48.460;11.450;2023-02-28T15:36:54;13.85;;;7.70;;
38591;SDS011;24356;48.460;11.450;2023-02-28T15:39:24;17.88;;;8.30;;
38591;SDS011;24356;48.460;11.450;2023-02-28T15:41:52;16.65;;;7.93;;
38591;SDS011;24356;48.460;11.450;2023-02-28T15:44:34;12.80;;;8.02;;
38591;SDS011;24356;48.460;11.450;2023-02-28T15:47:11;15.55;;;8.02;;
38591;SDS011;24356;48.460;11.450;2023-02-28T15:52:42;12.35;;;7.82;;
38591;SDS011;24356;48.460;11.450;2023-02-28T15:55:10;12.05;;;8.10;;
38591;SDS011;24356;48.460;11.450;2023-02-28T15:57:43;13.80;;;7.70;;
38591;SDS011;24356;48.460;11.450;2023-02-28T16:00:11;12.63;;;7.65;;
38591;SDS011;24356;48.460;11.450;2023-02-28T16:02:40;11.70;;;7.80;;
38591;SDS011;24356;48.460;11.450;2023-02-28T16:07:38;13.45;;;7.82;;
38591;SDS011;24356;48.460;11.450;2023-02-28T16:10:06;12.65;;;7.85;;
38591;SDS011;24356;48.460;11.450;2023-02-28T16:12:35;14.68;;;8.40;;
38591;SDS011;24356;48.460;11.450;2023-02-28T16:15:05;16.70;;;8.07;;
38591;SDS011;24356;48.460;11.450;2023-02-28T16:17:42;16.00;;;8.20;;
38591;SDS011;24356;48.460;11.450;2023-02-28T16:20:14;17.00;;;8.50;;
38591;SDS011;24356;48.460;11.450;2023-02-28T16:22:43;17.25;;;8.55;;
38591;SDS011;24356;48.460;11.450;2023-02-28T16:25:13;16.17;;;8.57;;
38591;SDS011;24356;48.460;11.450;2023-02-28T16:27:40;19.98;;;9.10;;
38591;SDS011;24356;48.460;11.450;2023-02-28T16:30:18;17.85;;;8.25;;
38591;SDS011;24356;48.460;11.450;2023-02-28T16:32:46;15.95;;;9.18;;
38591;SDS011;24356;48.460;11.450;2023-02-28T16:35:14;16.83;;;8.20;;
38591;SDS011;24356;48.460;11.450;2023-02-28T16:37:40;15.95;;;8.52;;
38591;SDS011;24356;48.460;11.450;2023-02-28T16:40:07;15.40;;;9.13;;
38591;SDS011;24356;48.460;11.450;2023-02-28T16:42:42;14.02;;;7.68;;
38591;SDS011;24356;48.460;11.450;2023-02-28T16:45:14;15.73;;;9.00;;
38591;SDS011;24356;48.460;11.450;2023-02-28T16:47:43;14.20;;;8.13;;
38591;SDS011;24356;48.460;11.450;2023-02-28T16:50:15;15.35;;;9.02;;
38591;SDS011;24356;48.460;11.450;2023-02-28T16:52:48;18.20;;;9.05;;
38591;SDS011;24356;48.460;11.450;2023-02-28T16:55:17;17.50;;;8.32;;